Currently 46°F in Temecula, California, USA
46°F
53°F / 46°F
calm
0.00"
Wednesday, March 29, 2017 6:17 AM PDT

Temecula, California Weather Summary
Last 36 Hours

Temperature Winds Hourly Humidity Dewpoint
Time Report Norm Report Norm Max Gusts Precip. Rpt. Norm Rpt. Norm Pressure
1Wed 06:17 AM  46.2°F  48°F  calm  1 mph  2 mph  0.00"  86%  91%  42°F  45°F  30.08"
3Wed 06:02 AM  46.2°F  48°F  1 mph NE  1 mph  3 mph  ----  85%  91%  42°F  46°F  30.08"
Wed 06:00 AM  46.3°F  48°F  1 mph NE  1 mph  3 mph  0.00"  85%  91%  42°F  46°F  30.08"
Wed 05:00 AM  47.5°F  49°F  1 mph NE  1 mph  4 mph  0.00"  79%  90%  41°F  46°F  30.09"
Wed 04:00 AM  48.4°F  49°F  2 mph E  1 mph  4 mph  0.00"  79%  89%  42°F  46°F  30.10"
Wed 03:00 AM  48.1°F  50°F  2 mph N  1 mph  5 mph  0.00"  76%  88%  41°F  47°F  30.10"
Wed 02:00 AM  50.1°F  51°F  calm  1 mph  4 mph  0.00"  78%  87%  43°F  47°F  30.10"
Wed 01:00 AM  51.6°F  52°F  calm  1 mph  3 mph  0.00"  76%  85%  44°F  47°F  30.10"
2Wed 12:00 AM  52.6°F  53°F  calm  2 mph  3 mph  0.00"  73%  84%  44°F  48°F  30.09"
Tue 11:00 PM  55.7°F  54°F  calm  2 mph  none  0.00"  66%  82%  44°F  48°F  30.09"
Tue 10:00 PM  59.0°F  55°F  calm  2 mph  7 mph  0.00"  57%  79%  43°F  49°F  30.09"
Tue 09:00 PM  60.5°F  57°F  1 mph S  3 mph  11 mph  0.00"  53%  76%  43°F  49°F  30.06"
Tue 08:00 PM  62.7°F  58°F  2 mph S  4 mph  13 mph  0.00"  53%  72%  45°F  49°F  30.05"
Tue 07:00 PM  66.1°F  61°F  7 mph S  6 mph  13 mph  0.00"  51%  66%  47°F  49°F  30.01"
Tue 06:00 PM  72.8°F  65°F  4 mph S  7 mph  14 mph  0.00"  41%  59%  47°F  49°F  29.99"
Tue 05:00 PM  72.9°F  68°F  8 mph S  9 mph  17 mph  0.00"  42%  53%  48°F  49°F  29.98"
Tue 04:00 PM  75.9°F  70°F  4 mph SW  9 mph  12 mph  0.00"  38%  49%  48°F  49°F  29.96"
Tue 03:00 PM  75.7°F  71°F  calm  9 mph  10 mph  0.00"  23%  47%  34°F  49°F  29.98"
Tue 02:00 PM  72.8°F  71°F  1 mph SE  8 mph  10 mph  0.00"  27%  46%  35°F  48°F  30.03"
Tue 01:00 PM  71.4°F  70°F  8 mph E  7 mph  11 mph  0.00"  29%  47%  36°F  48°F  30.06"
Tue 12:00 PM  69.0°F  67°F  3 mph SW  6 mph  10 mph  0.00"  33%  52%  38°F  49°F  30.08"
Tue 11:00 AM  65.4°F  64°F  6 mph N  5 mph  11 mph  0.00"  38%  61%  38°F  49°F  30.10"
Tue 10:00 AM  61.0°F  59°F  5 mph W  4 mph  8 mph  0.00"  60%  72%  47°F  49°F  30.10"
Tue 09:00 AM  53.3°F  54°F  5 mph SE  3 mph  6 mph  0.00"  72%  82%  44°F  48°F  30.10"
Tue 08:00 AM  45.6°F  50°F  3 mph NW  2 mph  4 mph  0.00"  93%  90%  44°F  47°F  30.09"
Tue 07:00 AM  44.8°F  48°F  calm  1 mph  none  0.00"  95%  91%  43°F  46°F  30.08"
Tue 06:00 AM  44.5°F  48°F  calm  1 mph  none  0.00"  96%  91%  43°F  46°F  30.09"
Tue 05:00 AM  45.4°F  49°F  calm  1 mph  2 mph  0.00"  95%  90%  44°F  46°F  30.07"
Tue 04:00 AM  46.4°F  49°F  calm  1 mph  4 mph  0.00"  95%  89%  45°F  46°F  30.06"
Tue 03:00 AM  47.7°F  50°F  calm  1 mph  3 mph  0.00"  94%  88%  46°F  47°F  30.07"
Tue 02:00 AM  49.4°F  51°F  calm  1 mph  3 mph  0.00"  92%  87%  47°F  47°F  30.08"
Tue 01:00 AM  50.8°F  52°F  2 mph E  2 mph  5 mph  0.00"  91%  86%  48°F  47°F  30.07"
Tue 12:00 AM  53.0°F  53°F  1 mph NE  2 mph  5 mph  0.00"  90%  84%  50°F  48°F  30.08"
Mon 11:00 PM  53.9°F  54°F  1 mph SE  2 mph  6 mph  0.00"  89%  82%  51°F  48°F  30.08"
Mon 10:00 PM  55.0°F  55°F  4 mph SE  2 mph  11 mph  0.00"  88%  79%  51°F  48°F  30.06"
Mon 09:00 PM  55.8°F  56°F  5 mph SW  3 mph  17 mph  0.00"  86%  76%  52°F  49°F  30.04"
Mon 08:00 PM  57.2°F  58°F  7 mph S  4 mph  17 mph  0.00"  82%  72%  52°F  49°F  30.02"
Mon 07:00 PM  59.4°F  61°F  9 mph S  6 mph  20 mph  0.00"  79%  66%  53°F  49°F  30.00"

  1. Current weather data. No green row appears if the current weather data is also the high or low for the current day.
  2. High temperature for the current day.
  3. Low temperature for the current day.

The Temecula weather pages are a service of WeatherCurrents. Temecula, California is located in the Temecula Valley, in southwestern Riverside County, along the Interstate 15 highway. The Temecula Valley's rolling hills are home to the Temecula wine country, vineyards, golf courses, a casino resort, and Old Town Temecula.
Copyright ©Wed Mar 29 06:18:12 PDT 2017  WeatherCurrents. All rights reserved. - Submit questions and comments - Privacy Policy

This page automatically refreshes every 10 minutes.